createdAt,value
2019-04-07T00:01:53.245Z,74.40
2019-04-07T00:04:22.591Z,74.30
2019-04-07T00:06:52.107Z,74.30
2019-04-07T00:09:21.414Z,74.50
2019-04-07T00:11:50.907Z,74.60
2019-04-07T00:14:20.651Z,74.40
2019-04-07T00:16:50.450Z,74.30
2019-04-07T00:19:20.805Z,74.30
2019-04-07T00:21:51.391Z,74.40
2019-04-07T00:24:20.638Z,74.40
2019-04-07T00:26:49.845Z,74.30
2019-04-07T00:29:19.544Z,74.40
2019-04-07T00:31:48.879Z,74.10
2019-04-07T00:34:18.413Z,74.10
2019-04-07T00:36:47.652Z,74.00
2019-04-07T00:39:16.957Z,73.90
2019-04-07T00:41:46.357Z,74.00
2019-04-07T00:44:15.875Z,73.90
2019-04-07T00:46:45.112Z,74.00
2019-04-07T00:49:14.887Z,73.90
2019-04-07T00:51:44.248Z,74.10
2019-04-07T00:54:13.464Z,73.90
2019-04-07T00:56:43.854Z,73.90
2019-04-07T00:59:13.296Z,73.70
2019-04-07T01:01:42.595Z,73.90
2019-04-07T01:04:12.235Z,73.90
2019-04-07T01:06:42.184Z,73.70
2019-04-07T01:09:12.320Z,74.00
2019-04-07T01:11:42.157Z,73.90
2019-04-07T01:14:11.447Z,74.00
2019-04-07T01:16:40.953Z,74.10
2019-04-07T01:19:10.452Z,74.20
2019-04-07T01:21:40.352Z,74.20
2019-04-07T01:24:09.855Z,74.30
2019-04-07T01:26:39.357Z,74.40
2019-04-07T01:29:09.213Z,74.40
2019-04-07T01:31:39.444Z,74.20
2019-04-07T01:34:08.824Z,74.30
2019-04-07T01:36:38.143Z,74.40
2019-04-07T01:39:09.187Z,74.40
2019-04-07T01:41:43.001Z,74.30
2019-04-07T01:44:23.406Z,74.30
2019-04-07T01:46:54.718Z,74.40
2019-04-07T01:49:26.025Z,74.50
2019-04-07T01:51:58.063Z,74.40
2019-04-07T01:54:45.428Z,74.30
2019-04-07T01:57:35.408Z,74.60
2019-04-07T02:00:17.381Z,74.30
2019-04-07T02:02:48.714Z,74.30
2019-04-07T02:05:33.378Z,74.40
2019-04-07T02:08:20.939Z,74.50
2019-04-07T02:11:07.544Z,74.50
2019-04-07T02:13:45.106Z,74.50
2019-04-07T02:16:21.903Z,74.60
2019-04-07T02:18:53.331Z,74.50
2019-04-07T02:21:24.997Z,74.70
2019-04-07T02:23:57.593Z,74.80
2019-04-07T02:26:37.775Z,74.90
2019-04-07T02:29:21.204Z,74.90
2019-04-07T02:32:09.878Z,74.90
2019-04-07T02:34:47.243Z,75.10
2019-04-07T02:37:30.100Z,75.10
2019-04-07T02:40:04.963Z,75.20
2019-04-07T02:42:46.029Z,75.30
2019-04-07T02:45:35.317Z,75.40
2019-04-07T02:48:07.012Z,75.50
2019-04-07T02:50:40.505Z,75.70
2019-04-07T02:53:11.400Z,75.80
2019-04-07T02:55:57.276Z,76.00
2019-04-07T02:58:31.343Z,76.00
2019-04-07T03:01:20.731Z,76.00
2019-04-07T03:04:07.379Z,76.40
2019-04-07T03:06:47.830Z,76.20
2019-04-07T03:09:22.967Z,76.30
2019-04-07T03:11:53.957Z,76.40
2019-04-07T03:14:28.398Z,76.50
2019-04-07T03:16:59.968Z,76.40
2019-04-07T03:19:33.149Z,76.30
2019-04-07T03:22:06.948Z,76.20
2019-04-07T03:24:44.461Z,76.20
2019-04-07T03:27:15.772Z,76.20
2019-04-07T03:29:47.136Z,76.10
2019-04-07T03:32:23.862Z,76.00
2019-04-07T03:35:10.088Z,76.10
2019-04-07T03:37:57.383Z,76.10
2019-04-07T03:40:31.228Z,76.00
2019-04-07T03:43:02.124Z,75.90
2019-04-07T03:45:33.867Z,75.90
2019-04-07T03:48:04.896Z,75.60
2019-04-07T03:50:38.791Z,75.90
2019-04-07T03:53:24.975Z,75.70
2019-04-07T03:56:13.426Z,75.90
2019-04-07T03:58:50.767Z,75.80
2019-04-07T04:01:38.166Z,75.80
2019-04-07T04:04:09.657Z,75.70
2019-04-07T04:06:55.484Z,75.80
2019-04-07T04:09:45.491Z,75.80
2019-04-07T04:12:32.746Z,75.80
2019-04-07T04:15:12.681Z,75.90
2019-04-07T04:17:41.925Z,76.10
2019-04-07T04:20:12.745Z,75.90
2019-04-07T04:22:43.110Z,76.00
2019-04-07T04:25:12.769Z,76.00
2019-04-07T04:27:42.082Z,76.20
2019-04-07T04:30:12.136Z,76.10
2019-04-07T04:32:41.631Z,76.00
2019-04-07T04:35:11.406Z,76.00
2019-04-07T04:37:46.613Z,76.10
2019-04-07T04:40:11.885Z,76.00
2019-04-07T04:42:42.012Z,76.00
2019-04-07T04:45:11.311Z,76.00
2019-04-07T04:47:40.788Z,76.00
2019-04-07T04:50:10.449Z,75.90
2019-04-07T04:52:40.783Z,76.10
2019-04-07T04:55:11.227Z,76.10
2019-04-07T04:57:40.753Z,76.00
2019-04-07T05:00:10.467Z,76.00
2019-04-07T05:02:39.797Z,76.20
2019-04-07T05:05:09.675Z,76.30
2019-04-07T05:07:51.000Z,76.10
2019-04-07T05:10:11.056Z,76.00
2019-04-07T05:12:40.343Z,76.10
2019-04-07T05:15:09.784Z,76.20
2019-04-07T05:17:39.067Z,76.30
2019-04-07T05:20:09.151Z,76.20
2019-04-07T05:22:38.480Z,76.10
2019-04-07T05:25:08.479Z,76.30
2019-04-07T05:27:38.274Z,76.20
2019-04-07T05:30:07.817Z,75.80
2019-04-07T05:32:37.705Z,75.90
2019-04-07T05:35:07.904Z,75.60
2019-04-07T05:37:38.447Z,75.60
2019-04-07T05:40:09.083Z,75.30
2019-04-07T05:42:38.956Z,75.50
2019-04-07T05:45:08.495Z,75.70
2019-04-07T05:47:37.733Z,75.40
2019-04-07T05:50:06.943Z,75.20
2019-04-07T05:52:39.857Z,75.40
2019-04-07T05:55:08.946Z,75.50
2019-04-07T05:57:38.761Z,75.40
2019-04-07T06:00:15.666Z,75.30
2019-04-07T06:02:45.555Z,75.70
2019-04-07T06:05:16.222Z,75.10
2019-04-07T06:07:46.982Z,75.40
2019-04-07T06:10:16.679Z,75.30
2019-04-07T06:12:47.382Z,75.20
2019-04-07T06:15:21.800Z,75.30
2019-04-07T06:17:50.080Z,75.30
2019-04-07T06:20:19.460Z,75.10
2019-04-07T06:22:52.794Z,75.00
2019-04-07T06:25:20.730Z,75.00
2019-04-07T06:27:51.868Z,74.70
2019-04-07T06:30:23.291Z,74.70
2019-04-07T06:32:52.808Z,74.60
2019-04-07T06:35:22.461Z,74.30
2019-04-07T06:37:52.054Z,74.10
2019-04-07T06:40:22.295Z,74.00
2019-04-07T06:42:52.271Z,73.60
2019-04-07T06:45:29.358Z,73.60
2019-04-07T06:48:09.406Z,73.10
2019-04-07T06:50:58.388Z,73.20
2019-04-07T06:53:32.540Z,73.00
2019-04-07T06:56:15.539Z,72.50
2019-04-07T06:59:04.904Z,72.60
2019-04-07T07:01:35.752Z,72.60
2019-04-07T07:04:23.229Z,72.60
2019-04-07T07:07:00.650Z,72.20
2019-04-07T07:09:48.871Z,72.00
2019-04-07T07:12:39.083Z,72.20
2019-04-07T07:15:21.419Z,71.80
2019-04-07T07:18:01.523Z,71.30
2019-04-07T07:20:48.877Z,71.20
2019-04-07T07:23:20.791Z,70.80
2019-04-07T07:25:50.652Z,70.80
2019-04-07T07:28:21.099Z,70.20
2019-04-07T07:30:52.690Z,70.00
2019-04-07T07:33:22.265Z,69.90
2019-04-07T07:35:51.711Z,69.90
2019-04-07T07:38:21.358Z,69.30
2019-04-07T07:40:51.447Z,70.10
2019-04-07T07:43:21.078Z,69.50
2019-04-07T07:45:51.178Z,69.20
2019-04-07T07:48:23.648Z,70.00
2019-04-07T07:50:51.472Z,69.30
2019-04-07T07:53:23.711Z,69.20
2019-04-07T07:55:51.612Z,68.60
2019-04-07T07:58:20.853Z,67.50
2019-04-07T08:00:50.621Z,68.40
2019-04-07T08:03:22.656Z,67.20
2019-04-07T08:05:52.213Z,67.50
2019-04-07T08:08:21.838Z,67.70
2019-04-07T08:10:51.718Z,67.50
2019-04-07T08:13:21.333Z,68.20
2019-04-07T08:15:50.584Z,68.00
2019-04-07T08:18:20.831Z,67.50
2019-04-07T08:20:51.256Z,66.40
2019-04-07T08:23:20.994Z,66.30
2019-04-07T08:25:52.911Z,66.30
2019-04-07T08:28:21.740Z,66.30
2019-04-07T08:30:51.358Z,65.80
2019-04-07T08:33:20.762Z,65.80
2019-04-07T08:35:50.200Z,65.70
2019-04-07T08:38:22.524Z,65.90
2019-04-07T08:40:52.894Z,65.40
2019-04-07T08:43:23.414Z,65.80
2019-04-07T08:45:52.507Z,66.20
2019-04-07T08:48:21.816Z,67.30
2019-04-07T08:50:52.831Z,66.90
2019-04-07T08:53:22.857Z,67.60
2019-04-07T08:55:54.722Z,66.80
2019-04-07T08:58:27.312Z,67.10
2019-04-07T09:00:56.164Z,66.10
2019-04-07T09:03:25.445Z,66.70
2019-04-07T09:05:57.354Z,66.40
2019-04-07T09:08:26.167Z,66.10
2019-04-07T09:10:59.793Z,66.10
2019-04-07T09:13:31.682Z,65.70
2019-04-07T09:16:08.245Z,66.00
2019-04-07T09:18:57.670Z,65.00
2019-04-07T09:21:38.336Z,64.90
2019-04-07T09:24:16.392Z,65.30
2019-04-07T09:27:03.899Z,65.00
2019-04-07T09:29:41.045Z,65.30
2019-04-07T09:32:27.812Z,64.90
2019-04-07T09:35:15.572Z,65.10
2019-04-07T09:38:02.010Z,65.20
2019-04-07T09:40:48.202Z,64.50
2019-04-07T09:43:33.524Z,64.10
2019-04-07T09:46:16.640Z,64.60
2019-04-07T09:48:50.985Z,64.80
2019-04-07T09:51:33.153Z,65.00
2019-04-07T09:54:14.878Z,63.80
2019-04-07T09:56:49.641Z,64.60
2019-04-07T09:59:23.915Z,64.40
2019-04-07T10:02:00.916Z,63.50
2019-04-07T10:04:30.600Z,63.10
2019-04-07T10:07:20.540Z,63.90
2019-04-07T10:10:03.623Z,64.00
2019-04-07T10:12:30.088Z,66.00
2019-04-07T10:15:08.034Z,64.30
2019-04-07T10:17:55.452Z,65.50
2019-04-07T10:20:43.045Z,64.30
2019-04-07T10:23:16.905Z,64.00
2019-04-07T10:25:50.748Z,63.10
2019-04-07T10:28:22.394Z,63.00
2019-04-07T10:30:56.736Z,64.50
2019-04-07T10:33:27.659Z,63.80
2019-04-07T10:35:58.531Z,63.20
2019-04-07T10:38:45.931Z,63.20
2019-04-07T10:41:18.368Z,62.30
2019-04-07T10:43:55.810Z,62.20
2019-04-07T10:46:27.161Z,62.20
2019-04-07T10:49:13.311Z,62.20
2019-04-07T10:51:51.203Z,63.20
2019-04-07T10:54:25.180Z,63.30
2019-04-07T10:57:05.101Z,65.10
2019-04-07T10:59:39.168Z,63.90
2019-04-07T11:02:13.499Z,63.30
2019-04-07T11:05:02.965Z,62.40
2019-04-07T11:07:34.303Z,62.70
2019-04-07T11:10:06.775Z,62.40
2019-04-07T11:12:37.898Z,62.80
2019-04-07T11:15:24.911Z,61.00
2019-04-07T11:18:04.653Z,60.70
2019-04-07T11:20:36.262Z,60.60
2019-04-07T11:23:16.580Z,61.50
2019-04-07T11:25:50.236Z,61.30
2019-04-07T11:28:28.841Z,60.40
2019-04-07T11:31:00.442Z,60.30
2019-04-07T11:33:35.076Z,59.90
2019-04-07T11:36:06.513Z,60.90
2019-04-07T11:38:53.573Z,60.80
2019-04-07T11:41:27.332Z,59.90
2019-04-07T11:43:59.692Z,60.10
2019-04-07T11:46:36.331Z,60.00
2019-04-07T11:49:10.372Z,59.70
2019-04-07T11:51:40.653Z,59.50
2019-04-07T11:54:14.352Z,60.50
2019-04-07T11:56:45.949Z,59.60
2019-04-07T11:59:29.026Z,59.20
2019-04-07T12:02:19.035Z,58.10
2019-04-07T12:04:55.706Z,57.70
2019-04-07T12:07:35.688Z,58.50
2019-04-07T12:10:09.808Z,58.20
2019-04-07T12:12:56.046Z,58.10
2019-04-07T12:15:39.965Z,57.90
2019-04-07T12:18:17.461Z,58.10
2019-04-07T12:20:45.112Z,56.70
2019-04-07T12:23:27.333Z,56.60
2019-04-07T12:26:09.613Z,55.40
2019-04-07T12:28:43.680Z,56.50
2019-04-07T12:31:16.317Z,56.20
2019-04-07T12:33:53.740Z,55.60
2019-04-07T12:36:41.871Z,55.70
2019-04-07T12:39:16.214Z,55.60
2019-04-07T12:42:04.015Z,54.20
2019-04-07T12:44:39.899Z,54.50
2019-04-07T12:47:23.649Z,54.70
2019-04-07T12:50:15.832Z,54.90
2019-04-07T12:52:51.889Z,54.30
2019-04-07T12:55:41.731Z,55.20
2019-04-07T12:58:18.275Z,54.70
2019-04-07T13:00:59.917Z,55.10
2019-04-07T13:03:39.132Z,54.60
2019-04-07T13:06:25.301Z,54.70
2019-04-07T13:09:02.224Z,54.30
2019-04-07T13:11:38.630Z,54.00
2019-04-07T13:14:08.729Z,54.50
2019-04-07T13:16:56.449Z,54.80
2019-04-07T13:19:33.219Z,54.50
2019-04-07T13:22:04.317Z,53.50
2019-04-07T13:24:45.524Z,54.30
2019-04-07T13:27:35.159Z,53.90
2019-04-07T13:30:21.371Z,55.00
2019-04-07T13:33:01.636Z,54.90
2019-04-07T13:35:30.993Z,54.20
2019-04-07T13:38:01.905Z,53.70
2019-04-07T13:40:47.744Z,54.10
2019-04-07T13:43:22.159Z,53.80
2019-04-07T13:46:18.934Z,54.00
2019-04-07T13:49:00.376Z,53.20
2019-04-07T13:51:36.675Z,53.60
2019-04-07T13:54:20.089Z,53.70
2019-04-07T13:57:10.159Z,53.50
2019-04-07T13:59:44.081Z,54.50
2019-04-07T14:02:14.252Z,54.30
2019-04-07T14:04:48.868Z,51.90
2019-04-07T14:07:35.316Z,52.10
2019-04-07T14:10:17.936Z,52.20
2019-04-07T14:13:06.300Z,51.90
2019-04-07T14:15:40.916Z,52.10
2019-04-07T14:18:24.491Z,51.50
2019-04-07T14:20:58.247Z,51.90
2019-04-07T14:23:29.773Z,51.90
2019-04-07T14:26:19.070Z,51.80
2019-04-07T14:28:50.120Z,52.30
2019-04-07T14:31:24.039Z,52.30
2019-04-07T14:33:58.864Z,52.50
2019-04-07T14:36:30.165Z,51.50
2019-04-07T14:39:10.673Z,50.60
2019-04-07T14:41:48.680Z,51.60
2019-04-07T14:44:34.723Z,52.20
2019-04-07T14:47:08.804Z,52.40
2019-04-07T14:49:52.167Z,52.00
2019-04-07T14:52:30.709Z,52.80
2019-04-07T14:55:02.618Z,52.90
2019-04-07T14:57:34.068Z,51.90
2019-04-07T15:00:26.995Z,52.40
2019-04-07T15:02:56.540Z,51.30
2019-04-07T15:05:31.008Z,51.60
2019-04-07T15:08:02.028Z,52.20
2019-04-07T15:10:36.136Z,53.20
2019-04-07T15:13:13.071Z,51.70
2019-04-07T15:15:43.115Z,51.70
2019-04-07T15:18:12.771Z,51.80
2019-04-07T15:20:43.097Z,50.30
2019-04-07T15:23:13.292Z,50.20
2019-04-07T15:25:46.003Z,50.30
2019-04-07T15:28:14.250Z,50.60
2019-04-07T15:30:47.939Z,49.80
2019-04-07T15:33:15.749Z,49.40
2019-04-07T15:35:48.431Z,49.30
2019-04-07T15:38:16.481Z,49.20
2019-04-07T15:40:47.099Z,49.70
2019-04-07T15:43:17.068Z,49.50
2019-04-07T15:45:46.951Z,49.00
2019-04-07T15:48:17.063Z,48.40
2019-04-07T15:50:46.404Z,49.10
2019-04-07T15:53:16.601Z,49.00
2019-04-07T15:55:56.004Z,49.10
2019-04-07T15:58:17.027Z,48.00
2019-04-07T16:00:46.400Z,47.60
2019-04-07T16:03:16.885Z,46.50
2019-04-07T16:05:46.559Z,46.40
2019-04-07T16:08:16.217Z,45.30
2019-04-07T16:10:45.510Z,44.80
2019-04-07T16:13:15.449Z,43.70
2019-04-07T16:15:46.295Z,42.80
2019-04-07T16:18:15.953Z,42.90
2019-04-07T16:20:45.444Z,41.30
2019-04-07T16:23:18.331Z,41.50
2019-04-07T16:25:47.451Z,41.30
2019-04-07T16:28:16.801Z,42.30
2019-04-07T16:30:49.560Z,42.10
2019-04-07T16:33:17.438Z,42.10
2019-04-07T16:35:50.882Z,42.60
2019-04-07T16:38:19.517Z,44.00
2019-04-07T16:40:49.061Z,44.70
2019-04-07T16:43:19.069Z,45.00
2019-04-07T16:45:49.149Z,45.80
2019-04-07T16:48:19.675Z,46.20
2019-04-07T16:50:53.336Z,46.80
2019-04-07T16:53:20.555Z,46.90
2019-04-07T16:55:53.129Z,47.60
2019-04-07T16:58:21.314Z,47.90
2019-04-07T17:00:51.759Z,48.60
2019-04-07T17:03:21.712Z,49.10
2019-04-07T17:05:55.676Z,49.50
2019-04-07T17:08:24.674Z,49.60
2019-04-07T17:10:53.941Z,49.90
2019-04-07T17:13:32.097Z,50.90
2019-04-07T17:15:55.155Z,50.30
2019-04-07T17:18:39.280Z,51.00
2019-04-07T17:21:15.667Z,52.00
2019-04-07T17:23:45.727Z,51.10
2019-04-07T17:26:15.204Z,51.00
2019-04-07T17:28:47.100Z,51.50
2019-04-07T17:31:15.436Z,51.90
2019-04-07T17:33:45.572Z,52.30
2019-04-07T17:36:17.574Z,52.60
2019-04-07T17:38:56.919Z,52.40
2019-04-07T17:41:26.144Z,52.60
2019-04-07T17:43:59.779Z,52.90
2019-04-07T17:46:47.136Z,53.20
2019-04-07T17:49:35.836Z,53.70
2019-04-07T17:52:24.609Z,53.70
2019-04-07T17:55:02.848Z,53.60
2019-04-07T17:57:40.780Z,54.00
2019-04-07T18:00:18.031Z,54.10
2019-04-07T18:02:54.899Z,54.00
2019-04-07T18:05:26.533Z,54.80
2019-04-07T18:08:01.719Z,55.20
2019-04-07T18:10:42.117Z,55.90
2019-04-07T18:13:15.427Z,55.40
2019-04-07T18:15:55.437Z,55.90
2019-04-07T18:18:38.569Z,56.10
2019-04-07T18:21:19.037Z,56.10
2019-04-07T18:23:51.966Z,56.70
2019-04-07T18:26:25.244Z,56.90
2019-04-07T18:28:56.135Z,56.90
2019-04-07T18:31:36.150Z,57.10
2019-04-07T18:34:25.120Z,57.40
2019-04-07T18:37:00.261Z,57.60
2019-04-07T18:39:54.215Z,57.40
2019-04-07T18:42:29.988Z,57.90
2019-04-07T18:45:07.966Z,58.40
2019-04-07T18:47:44.832Z,59.10
2019-04-07T18:50:28.728Z,59.60
2019-04-07T18:53:05.636Z,59.90
2019-04-07T18:55:38.198Z,60.10
2019-04-07T18:58:15.422Z,61.30
2019-04-07T19:00:56.459Z,61.30
2019-04-07T19:03:30.151Z,60.80
2019-04-07T19:06:18.076Z,61.60
2019-04-07T19:09:05.478Z,62.70
2019-04-07T19:11:39.722Z,63.30
2019-04-07T19:14:35.634Z,62.90
2019-04-07T19:16:54.571Z,63.40
2019-04-07T19:19:44.158Z,63.20
2019-04-07T19:22:31.405Z,63.40
2019-04-07T19:25:20.329Z,63.50
2019-04-07T19:27:54.085Z,63.40
2019-04-07T19:30:43.631Z,62.50
2019-04-07T19:33:12.976Z,62.30
2019-04-07T19:35:49.899Z,63.70
2019-04-07T19:38:29.954Z,63.80
2019-04-07T19:41:06.925Z,63.00
2019-04-07T19:43:39.910Z,63.40
2019-04-07T19:46:22.390Z,64.10
2019-04-07T19:49:11.282Z,63.80
2019-04-07T19:51:42.348Z,63.50
2019-04-07T19:54:29.232Z,63.10
2019-04-07T19:57:02.896Z,62.80
2019-04-07T19:59:43.094Z,63.00
2019-04-07T20:02:20.068Z,63.30
2019-04-07T20:04:54.741Z,63.00
2019-04-07T20:07:42.405Z,62.60
2019-04-07T20:10:18.089Z,63.00
2019-04-07T20:13:01.048Z,63.30
2019-04-07T20:15:49.359Z,63.30
2019-04-07T20:18:24.459Z,63.40
2019-04-07T20:20:57.416Z,63.50
2019-04-07T20:23:31.804Z,64.30
2019-04-07T20:26:10.201Z,64.10
2019-04-07T20:28:44.821Z,64.40
2019-04-07T20:31:19.409Z,64.90
2019-04-07T20:34:07.587Z,64.90
2019-04-07T20:36:38.603Z,65.10
2019-04-07T20:39:10.101Z,64.30
2019-04-07T20:41:43.950Z,65.00
2019-04-07T20:44:15.838Z,64.70
2019-04-07T20:46:59.025Z,64.80
2019-04-07T20:49:40.236Z,64.70
2019-04-07T20:52:13.328Z,65.00
2019-04-07T20:54:44.869Z,64.30
2019-04-07T20:57:22.417Z,62.50
2019-04-07T21:00:09.577Z,62.70
2019-04-07T21:02:41.235Z,63.20
2019-04-07T21:05:22.996Z,63.20
2019-04-07T21:08:12.432Z,63.60
2019-04-07T21:10:56.034Z,63.70
2019-04-07T21:13:32.752Z,63.30
2019-04-07T21:16:03.694Z,64.00
2019-04-07T21:18:51.016Z,64.30
2019-04-07T21:21:29.206Z,64.80
2019-04-07T21:24:18.991Z,64.70
2019-04-07T21:26:49.155Z,65.40
2019-04-07T21:29:31.816Z,65.20
2019-04-07T21:32:12.222Z,64.70
2019-04-07T21:35:00.379Z,64.60
2019-04-07T21:37:33.954Z,65.40
2019-04-07T21:40:15.518Z,65.20
2019-04-07T21:42:48.269Z,65.70
2019-04-07T21:45:41.014Z,65.50
2019-04-07T21:48:08.201Z,66.00
2019-04-07T21:50:48.146Z,66.50
2019-04-07T21:53:28.831Z,66.70
2019-04-07T21:56:15.409Z,66.80
2019-04-07T21:58:47.452Z,66.90
2019-04-07T22:01:18.761Z,67.20
2019-04-07T22:03:49.759Z,67.50
2019-04-07T22:06:39.010Z,67.60
2019-04-07T22:09:23.258Z,67.80
2019-04-07T22:11:54.599Z,67.70
2019-04-07T22:14:23.459Z,68.20
2019-04-07T22:16:52.661Z,68.10
2019-04-07T22:19:22.291Z,68.20
2019-04-07T22:21:55.798Z,68.40
2019-04-07T22:24:23.626Z,68.60
2019-04-07T22:26:53.165Z,68.70
2019-04-07T22:29:22.707Z,68.70
2019-04-07T22:31:53.916Z,69.40
2019-04-07T22:34:23.132Z,69.40
2019-04-07T22:36:54.515Z,69.40
2019-04-07T22:39:27.512Z,70.00
2019-04-07T22:41:56.134Z,70.40
2019-04-07T22:44:25.608Z,71.10
2019-04-07T22:46:54.856Z,71.30
2019-04-07T22:49:28.562Z,71.70
2019-04-07T22:51:56.317Z,71.80
2019-04-07T22:54:30.178Z,71.90
2019-04-07T22:56:56.944Z,71.90
2019-04-07T22:59:26.256Z,71.70
2019-04-07T23:01:55.683Z,71.70
2019-04-07T23:04:25.846Z,71.70
2019-04-07T23:06:56.551Z,71.70
2019-04-07T23:09:25.975Z,71.60
2019-04-07T23:11:55.276Z,71.60
2019-04-07T23:14:25.375Z,71.70
2019-04-07T23:16:54.809Z,71.80
2019-04-07T23:19:24.922Z,72.00
2019-04-07T23:21:54.231Z,72.10
2019-04-07T23:24:24.662Z,72.20
2019-04-07T23:26:54.358Z,72.50
2019-04-07T23:29:23.720Z,72.60
2019-04-07T23:31:54.011Z,72.40
2019-04-07T23:34:23.870Z,72.80
2019-04-07T23:36:54.073Z,72.80
2019-04-07T23:39:23.381Z,72.80
2019-04-07T23:41:53.265Z,72.70
2019-04-07T23:44:23.487Z,72.80
2019-04-07T23:46:53.058Z,72.90
2019-04-07T23:49:22.577Z,73.00
2019-04-07T23:51:53.170Z,73.00
2019-04-07T23:54:22.660Z,73.20
2019-04-07T23:56:52.333Z,73.40
2019-04-07T23:59:21.575Z,73.50
